sensor_id;sensor_type;location;lat;lon;timestamp;pressure;altitude;pressure_sealevel;temperature;humidity
3917;BME280;1973;50.518;7.318;2023-07-31T00:02:25;100583.59;;;20.72;96.13
3917;BME280;1973;50.518;7.318;2023-07-31T00:04:52;100581.91;;;20.76;95.70
3917;BME280;1973;50.518;7.318;2023-07-31T00:07:18;100574.03;;;20.78;95.94
3917;BME280;1973;50.518;7.318;2023-07-31T00:09:45;100588.56;;;20.80;95.95
3917;BME280;1973;50.518;7.318;2023-07-31T00:12:11;100575.75;;;20.74;97.07
3917;BME280;1973;50.518;7.318;2023-07-31T00:14:38;100579.13;;;20.71;97.47
3917;BME280;1973;50.518;7.318;2023-07-31T00:17:05;100580.81;;;20.72;97.53
3917;BME280;1973;50.518;7.318;2023-07-31T00:19:31;100581.34;;;20.74;97.73
3917;BME280;1973;50.518;7.318;2023-07-31T00:21:58;100572.38;;;20.77;97.46
3917;BME280;1973;50.518;7.318;2023-07-31T00:24:24;100563.72;;;20.74;98.29
3917;BME280;1973;50.518;7.318;2023-07-31T00:26:51;100566.28;;;20.65;99.70
3917;BME280;1973;50.518;7.318;2023-07-31T00:29:18;100569.63;;;20.67;99.72
3917;BME280;1973;50.518;7.318;2023-07-31T00:31:44;100572.44;;;20.67;100.00
3917;BME280;1973;50.518;7.318;2023-07-31T00:34:11;100565.78;;;20.53;100.00
3917;BME280;1973;50.518;7.318;2023-07-31T00:36:37;100566.59;;;20.59;100.00
3917;BME280;1973;50.518;7.318;2023-07-31T00:39:04;100569.38;;;20.59;100.00
3917;BME280;1973;50.518;7.318;2023-07-31T00:41:31;100560.19;;;20.58;100.00
3917;BME280;1973;50.518;7.318;2023-07-31T00:43:58;100575.25;;;20.62;100.00
3917;BME280;1973;50.518;7.318;2023-07-31T00:46:24;100556.81;;;20.61;100.00
3917;BME280;1973;50.518;7.318;2023-07-31T00:48:51;100572.75;;;20.61;100.00
3917;BME280;1973;50.518;7.318;2023-07-31T00:51:17;100569.13;;;20.55;100.00
3917;BME280;1973;50.518;7.318;2023-07-31T00:53:45;100566.59;;;20.59;100.00
3917;BME280;1973;50.518;7.318;2023-07-31T00:56:12;100573.59;;;20.56;100.00
3917;BME280;1973;50.518;7.318;2023-07-31T00:58:39;100578.66;;;20.54;100.00
3917;BME280;1973;50.518;7.318;2023-07-31T01:01:06;100566.94;;;20.47;100.00
3917;BME280;1973;50.518;7.318;2023-07-31T01:03:32;100573.09;;;20.49;100.00
3917;BME280;1973;50.518;7.318;2023-07-31T01:06:24;100574.78;;;20.45;100.00
3917;BME280;1973;50.518;7.318;2023-07-31T01:09:04;100567.81;;;20.43;100.00
3917;BME280;1973;50.518;7.318;2023-07-31T01:11:36;100559.94;;;20.45;100.00
3917;BME280;1973;50.518;7.318;2023-07-31T01:14:03;100563.00;;;20.48;100.00
3917;BME280;1973;50.518;7.318;2023-07-31T01:16:30;100566.38;;;20.50;100.00
3917;BME280;1973;50.518;7.318;2023-07-31T01:18:56;100566.66;;;20.49;100.00
3917;BME280;1973;50.518;7.318;2023-07-31T01:27:10;100544.59;;;20.37;100.00
3917;BME280;1973;50.518;7.318;2023-07-31T01:29:43;100544.59;;;20.37;100.00
3917;BME280;1973;50.518;7.318;2023-07-31T01:32:13;100546.59;;;20.31;100.00
3917;BME280;1973;50.518;7.318;2023-07-31T01:34:40;100545.69;;;20.41;100.00
3917;BME280;1973;50.518;7.318;2023-07-31T01:37:07;100541.78;;;20.42;100.00
3917;BME280;1973;50.518;7.318;2023-07-31T01:39:34;100546.81;;;20.45;100.00
3917;BME280;1973;50.518;7.318;2023-07-31T01:42:01;100544.03;;;20.40;100.00
3917;BME280;1973;50.518;7.318;2023-07-31T01:44:27;100539.53;;;20.44;100.00
3917;BME280;1973;50.518;7.318;2023-07-31T01:46:54;100539.25;;;20.46;100.00
3917;BME280;1973;50.518;7.318;2023-07-31T01:49:21;100542.06;;;20.46;100.00
3917;BME280;1973;50.518;7.318;2023-07-31T01:51:47;100548.56;;;20.31;100.00
3917;BME280;1973;50.518;7.318;2023-07-31T01:54:14;100541.00;;;20.21;100.00
3917;BME280;1973;50.518;7.318;2023-07-31T01:56:40;100534.00;;;20.29;100.00
3917;BME280;1973;50.518;7.318;2023-07-31T01:59:08;100537.38;;;20.31;100.00
3917;BME280;1973;50.518;7.318;2023-07-31T02:01:34;100529.50;;;20.33;100.00
3917;BME280;1973;50.518;7.318;2023-07-31T02:04:01;100528.16;;;20.20;100.00
3917;BME280;1973;50.518;7.318;2023-07-31T02:06:27;100527.84;;;20.22;100.00
3917;BME280;1973;50.518;7.318;2023-07-31T02:08:54;100524.22;;;20.26;100.00
3917;BME280;1973;50.518;7.318;2023-07-31T02:11:20;100518.91;;;20.25;100.00
3917;BME280;1973;50.518;7.318;2023-07-31T02:13:47;100522.81;;;20.29;100.00
3917;BME280;1973;50.518;7.318;2023-07-31T02:16:14;100516.66;;;20.27;100.00
3917;BME280;1973;50.518;7.318;2023-07-31T02:18:40;100516.94;;;20.30;100.00
3917;BME280;1973;50.518;7.318;2023-07-31T02:21:07;100513.88;;;20.27;100.00
3917;BME280;1973;50.518;7.318;2023-07-31T02:23:33;100511.34;;;20.30;100.00
3917;BME280;1973;50.518;7.318;2023-07-31T02:26:00;100516.09;;;20.30;100.00
3917;BME280;1973;50.518;7.318;2023-07-31T02:28:26;100531.75;;;20.26;100.00
3917;BME280;1973;50.518;7.318;2023-07-31T02:30:53;100522.81;;;20.29;100.00
3917;BME280;1973;50.518;7.318;2023-07-31T02:33:20;100520.28;;;20.32;100.00
3917;BME280;1973;50.518;7.318;2023-07-31T02:35:46;100515.53;;;20.33;100.00
3917;BME280;1973;50.518;7.318;2023-07-31T02:38:13;100512.19;;;20.31;100.00
3917;BME280;1973;50.518;7.318;2023-07-31T02:40:40;100515.56;;;20.28;100.00
3917;BME280;1973;50.518;7.318;2023-07-31T02:43:10;100493.22;;;20.28;100.00
3917;BME280;1973;50.518;7.318;2023-07-31T02:45:36;100490.41;;;20.28;100.00
3917;BME280;1973;50.518;7.318;2023-07-31T02:48:03;100491.50;;;20.32;100.00
3917;BME280;1973;50.518;7.318;2023-07-31T02:50:30;100491.19;;;20.33;100.00
3917;BME280;1973;50.518;7.318;2023-07-31T02:52:56;100493.72;;;20.35;100.00
3917;BME280;1973;50.518;7.318;2023-07-31T02:55:23;100494.84;;;20.34;100.00
3917;BME280;1973;50.518;7.318;2023-07-31T02:57:49;100494.00;;;20.33;100.00
3917;BME280;1973;50.518;7.318;2023-07-31T03:00:16;100498.50;;;20.29;100.00
3917;BME280;1973;50.518;7.318;2023-07-31T03:02:43;100495.97;;;20.33;100.00
3917;BME280;1973;50.518;7.318;2023-07-31T03:05:10;100492.31;;;20.32;100.00
3917;BME280;1973;50.518;7.318;2023-07-31T03:07:36;100489.25;;;20.34;100.00
3917;BME280;1973;50.518;7.318;2023-07-31T03:10:03;100492.06;;;20.29;100.00
3917;BME280;1973;50.518;7.318;2023-07-31T03:12:30;100492.31;;;20.32;100.00
3917;BME280;1973;50.518;7.318;2023-07-31T03:14:56;100494.84;;;20.34;100.00
3917;BME280;1973;50.518;7.318;2023-07-31T03:17:23;100487.63;;;20.28;100.00
3917;BME280;1973;50.518;7.318;2023-07-31T03:19:49;100499.03;;;20.26;100.00
3917;BME280;1973;50.518;7.318;2023-07-31T03:22:16;100490.66;;;20.21;100.00
3917;BME280;1973;50.518;7.318;2023-07-31T03:24:42;100484.22;;;20.26;100.00
3917;BME280;1973;50.518;7.318;2023-07-31T03:27:09;100476.44;;;20.28;100.00
3917;BME280;1973;50.518;7.318;2023-07-31T03:29:36;100477.25;;;20.23;100.00
3917;BME280;1973;50.518;7.318;2023-07-31T03:32:02;100468.28;;;20.21;100.00
3917;BME280;1973;50.518;7.318;2023-07-31T03:34:29;100462.44;;;20.18;100.00
3917;BME280;1973;50.518;7.318;2023-07-31T03:36:55;100466.06;;;20.23;100.00
3917;BME280;1973;50.518;7.318;2023-07-31T03:39:22;100457.94;;;20.22;100.00
3917;BME280;1973;50.518;7.318;2023-07-31T03:41:49;100457.41;;;20.20;100.00
3917;BME280;1973;50.518;7.318;2023-07-31T03:44:15;100461.91;;;20.21;100.00
3917;BME280;1973;50.518;7.318;2023-07-31T03:46:42;100453.78;;;20.19;100.00
3917;BME280;1973;50.518;7.318;2023-07-31T03:49:08;100453.78;;;20.19;100.00
3917;BME280;1973;50.518;7.318;2023-07-31T03:51:35;100447.91;;;20.21;100.00
3917;BME280;1973;50.518;7.318;2023-07-31T03:54:01;100444.56;;;20.19;100.00
3917;BME280;1973;50.518;7.318;2023-07-31T03:56:28;100456.31;;;20.21;100.00
3917;BME280;1973;50.518;7.318;2023-07-31T03:58:55;100433.94;;;20.21;100.00
3917;BME280;1973;50.518;7.318;2023-07-31T04:01:22;100442.88;;;20.18;100.00
3917;BME280;1973;50.518;7.318;2023-07-31T04:03:49;100440.91;;;20.18;100.00
3917;BME280;1973;50.518;7.318;2023-07-31T04:06:15;100439.53;;;20.16;100.00
3917;BME280;1973;50.518;7.318;2023-07-31T04:08:44;100446.25;;;20.15;100.00
3917;BME280;1973;50.518;7.318;2023-07-31T04:11:11;100439.56;;;20.11;100.00
3917;BME280;1973;50.518;7.318;2023-07-31T04:13:38;100440.16;;;20.08;100.00
3917;BME280;1973;50.518;7.318;2023-07-31T04:16:05;100443.25;;;20.06;100.00
3917;BME280;1973;50.518;7.318;2023-07-31T04:18:32;100445.47;;;20.04;100.00
3917;BME280;1973;50.518;7.318;2023-07-31T04:20:58;100437.66;;;20.06;100.00
3917;BME280;1973;50.518;7.318;2023-07-31T04:23:25;100440.72;;;20.00;100.00
3917;BME280;1973;50.518;7.318;2023-07-31T04:25:51;100432.34;;;20.00;100.00
3917;BME280;1973;50.518;7.318;2023-07-31T04:28:18;100432.63;;;20.03;100.00
3917;BME280;1973;50.518;7.318;2023-07-31T04:30:45;100435.97;;;20.00;100.00
3917;BME280;1973;50.518;7.318;2023-07-31T04:33:15;100430.69;;;19.99;100.00
3917;BME280;1973;50.518;7.318;2023-07-31T04:35:41;100439.94;;;19.99;100.00
3917;BME280;1973;50.518;7.318;2023-07-31T04:38:08;100454.72;;;20.00;100.00
3917;BME280;1973;50.518;7.318;2023-07-31T04:40:34;100444.63;;;20.04;100.00
3917;BME280;1973;50.518;7.318;2023-07-31T04:43:01;100434.03;;;20.06;100.00
3917;BME280;1973;50.518;7.318;2023-07-31T04:45:27;100434.03;;;20.06;100.00
3917;BME280;1973;50.518;7.318;2023-07-31T04:47:54;100433.44;;;20.04;100.00
3917;BME280;1973;50.518;7.318;2023-07-31T04:50:20;100440.72;;;20.05;100.00
3917;BME280;1973;50.518;7.318;2023-07-31T04:52:47;100442.41;;;20.06;100.00
3917;BME280;1973;50.518;7.318;2023-07-31T04:55:14;100434.84;;;20.06;100.00
3917;BME280;1973;50.518;7.318;2023-07-31T04:57:40;100428.16;;;20.02;100.00
3917;BME280;1973;50.518;7.318;2023-07-31T05:00:07;100433.44;;;20.04;100.00
3917;BME280;1973;50.518;7.318;2023-07-31T05:02:34;100435.66;;;20.07;100.00
3917;BME280;1973;50.518;7.318;2023-07-31T05:05:00;100438.78;;;20.05;100.00
3917;BME280;1973;50.518;7.318;2023-07-31T05:07:27;100453.91;;;19.99;100.00
3917;BME280;1973;50.518;7.318;2023-07-31T05:09:53;100446.91;;;19.97;100.00
3917;BME280;1973;50.518;7.318;2023-07-31T05:12:23;100435.72;;;19.97;100.00
3917;BME280;1973;50.518;7.318;2023-07-31T05:14:50;100434.34;;;19.99;100.00
3917;BME280;1973;50.518;7.318;2023-07-31T05:17:17;100428.44;;;20.01;100.00
3917;BME280;1973;50.518;7.318;2023-07-31T05:19:43;100423.97;;;20.00;100.00
3917;BME280;1973;50.518;7.318;2023-07-31T05:22:10;100419.78;;;20.02;100.00
3917;BME280;1973;50.518;7.318;2023-07-31T05:24:36;100424.81;;;20.00;100.00
3917;BME280;1973;50.518;7.318;2023-07-31T05:27:03;100413.94;;;19.99;100.00
3917;BME280;1973;50.518;7.318;2023-07-31T05:29:30;100424.00;;;19.95;100.00
3917;BME280;1973;50.518;7.318;2023-07-31T05:31:56;100425.66;;;19.96;100.00
3917;BME280;1973;50.518;7.318;2023-07-31T05:34:23;100412.25;;;19.98;100.00
3917;BME280;1973;50.518;7.318;2023-07-31T05:36:50;100413.38;;;19.97;100.00
3917;BME280;1973;50.518;7.318;2023-07-31T05:39:16;100408.09;;;19.95;100.00
3917;BME280;1973;50.518;7.318;2023-07-31T05:41:44;100395.22;;;19.99;100.00
3917;BME280;1973;50.518;7.318;2023-07-31T05:44:11;100401.06;;;19.98;100.00
3917;BME280;1973;50.518;7.318;2023-07-31T05:46:38;100406.66;;;19.98;100.00
3917;BME280;1973;50.518;7.318;2023-07-31T05:49:05;100398.03;;;19.89;100.00
3917;BME280;1973;50.518;7.318;2023-07-31T05:51:31;100402.22;;;19.91;100.00
3917;BME280;1973;50.518;7.318;2023-07-31T05:53:58;100395.53;;;19.87;100.00
3917;BME280;1973;50.518;7.318;2023-07-31T05:56:25;100390.78;;;19.88;100.00
3917;BME280;1973;50.518;7.318;2023-07-31T05:58:53;100387.13;;;19.92;100.00
3917;BME280;1973;50.518;7.318;2023-07-31T06:01:20;100386.00;;;19.93;100.00
3917;BME280;1973;50.518;7.318;2023-07-31T06:03:47;100390.47;;;19.95;100.00
3917;BME280;1973;50.518;7.318;2023-07-31T06:06:14;100382.63;;;19.97;100.00
3917;BME280;1973;50.518;7.318;2023-07-31T06:08:41;100391.31;;;19.95;100.00
3917;BME280;1973;50.518;7.318;2023-07-31T06:11:07;100379.84;;;19.97;100.00
3917;BME280;1973;50.518;7.318;2023-07-31T06:13:35;100380.34;;;20.04;100.00
3917;BME280;1973;50.518;7.318;2023-07-31T06:16:02;100385.06;;;20.08;100.00
3917;BME280;1973;50.518;7.318;2023-07-31T06:18:32;100384.50;;;20.11;100.00
3917;BME280;1973;50.518;7.318;2023-07-31T06:20:59;100389.84;;;20.08;100.00
3917;BME280;1973;50.518;7.318;2023-07-31T06:23:25;100385.06;;;20.08;100.00
3917;BME280;1973;50.518;7.318;2023-07-31T06:25:52;100394.28;;;20.14;100.00
3917;BME280;1973;50.518;7.318;2023-07-31T06:28:18;100380.25;;;20.19;100.00
3917;BME280;1973;50.518;7.318;2023-07-31T06:30:45;100389.22;;;20.21;100.00
3917;BME280;1973;50.518;7.318;2023-07-31T06:33:12;100381.06;;;20.24;100.00
3917;BME280;1973;50.518;7.318;2023-07-31T06:35:38;100377.44;;;20.24;100.00
3917;BME280;1973;50.518;7.318;2023-07-31T06:38:05;100373.81;;;20.23;100.00
3917;BME280;1973;50.518;7.318;2023-07-31T06:40:31;100388.13;;;20.17;100.00
3917;BME280;1973;50.518;7.318;2023-07-31T06:42:58;100373.63;;;20.05;100.00
3917;BME280;1973;50.518;7.318;2023-07-31T06:45:25;100372.53;;;20.06;100.00
3917;BME280;1973;50.518;7.318;2023-07-31T06:47:51;100382.25;;;20.13;100.00
3917;BME280;1973;50.518;7.318;2023-07-31T06:50:18;100373.03;;;20.13;100.00
3917;BME280;1973;50.518;7.318;2023-07-31T06:52:45;100379.22;;;20.10;100.00
3917;BME280;1973;50.518;7.318;2023-07-31T06:55:19;100376.94;;;20.12;100.00
3917;BME280;1973;50.518;7.318;2023-07-31T06:57:47;100379.75;;;20.12;100.00
3917;BME280;1973;50.518;7.318;2023-07-31T07:00:15;100382.03;;;20.05;100.00
3917;BME280;1973;50.518;7.318;2023-07-31T07:02:42;100375.91;;;20.03;100.00
3917;BME280;1973;50.518;7.318;2023-07-31T07:05:08;100378.38;;;20.09;100.00
3917;BME280;1973;50.518;7.318;2023-07-31T07:07:36;100377.50;;;20.14;100.00
3917;BME280;1973;50.518;7.318;2023-07-31T07:10:03;100364.31;;;20.19;100.00
3917;BME280;1973;50.518;7.318;2023-07-31T07:12:31;100358.16;;;20.22;100.00
3917;BME280;1973;50.518;7.318;2023-07-31T07:14:58;100368.22;;;20.28;100.00
3917;BME280;1973;50.518;7.318;2023-07-31T07:17:25;100357.03;;;20.28;100.00
3917;BME280;1973;50.518;7.318;2023-07-31T07:19:52;100356.13;;;20.33;100.00
3917;BME280;1973;50.518;7.318;2023-07-31T07:22:18;100351.94;;;20.35;100.00
3917;BME280;1973;50.518;7.318;2023-07-31T07:24:45;100346.59;;;20.39;100.00
3917;BME280;1973;50.518;7.318;2023-07-31T07:27:11;100341.75;;;20.50;100.00
3917;BME280;1973;50.518;7.318;2023-07-31T07:29:38;100338.38;;;20.53;100.00
3917;BME280;1973;50.518;7.318;2023-07-31T07:32:05;100331.31;;;20.60;100.00
3917;BME280;1973;50.518;7.318;2023-07-31T07:34:32;100326.22;;;20.67;100.00
3917;BME280;1973;50.518;7.318;2023-07-31T07:36:58;100331.78;;;20.72;100.00
3917;BME280;1973;50.518;7.318;2023-07-31T07:39:25;100339.00;;;20.73;100.00
3917;BME280;1973;50.518;7.318;2023-07-31T07:41:51;100337.28;;;20.77;100.00
3917;BME280;1973;50.518;7.318;2023-07-31T07:44:19;100342.13;;;20.72;100.00
3917;BME280;1973;50.518;7.318;2023-07-31T07:46:46;100340.09;;;20.77;100.00
3917;BME280;1973;50.518;7.318;2023-07-31T07:49:12;100329.50;;;20.74;100.00
3917;BME280;1973;50.518;7.318;2023-07-31T07:51:39;100335.06;;;20.79;100.00
3917;BME280;1973;50.518;7.318;2023-07-31T07:54:06;100341.81;;;20.73;100.00
3917;BME280;1973;50.518;7.318;2023-07-31T07:56:33;100339.00;;;20.73;100.00
3917;BME280;1973;50.518;7.318;2023-07-31T07:58:59;100335.47;;;20.63;100.00
3917;BME280;1973;50.518;7.318;2023-07-31T08:01:26;100343.34;;;20.61;100.00
3917;BME280;1973;50.518;7.318;2023-07-31T08:03:52;100346.78;;;20.48;100.00
3917;BME280;1973;50.518;7.318;2023-07-31T08:06:19;100347.47;;;20.34;100.00
3917;BME280;1973;50.518;7.318;2023-07-31T08:08:46;100346.66;;;20.29;100.00
3917;BME280;1973;50.518;7.318;2023-07-31T08:11:12;100343.25;;;20.37;100.00
3917;BME280;1973;50.518;7.318;2023-07-31T08:13:39;100349.72;;;20.27;100.00
3917;BME280;1973;50.518;7.318;2023-07-31T08:16:06;100342.22;;;20.23;100.00
3917;BME280;1973;50.518;7.318;2023-07-31T08:18:32;100335.19;;;20.25;100.00
3917;BME280;1973;50.518;7.318;2023-07-31T08:21:02;100327.38;;;20.27;100.00
3917;BME280;1973;50.518;7.318;2023-07-31T08:23:29;100329.41;;;20.17;100.00
3917;BME280;1973;50.518;7.318;2023-07-31T08:25:56;100332.78;;;20.14;100.00
3917;BME280;1973;50.518;7.318;2023-07-31T08:28:22;100335.28;;;20.15;100.00
3917;BME280;1973;50.518;7.318;2023-07-31T08:30:49;100324.34;;;20.19;100.00
3917;BME280;1973;50.518;7.318;2023-07-31T08:33:17;100326.53;;;20.27;100.00
3917;BME280;1973;50.518;7.318;2023-07-31T08:35:43;100322.91;;;20.21;100.00
3917;BME280;1973;50.518;7.318;2023-07-31T08:38:12;100318.16;;;20.22;100.00
3917;BME280;1973;50.518;7.318;2023-07-31T08:40:38;100314.19;;;20.33;100.00
3917;BME280;1973;50.518;7.318;2023-07-31T08:43:05;100312.22;;;20.38;100.00
3917;BME280;1973;50.518;7.318;2023-07-31T08:45:32;100318.03;;;20.42;100.00
3917;BME280;1973;50.518;7.318;2023-07-31T08:47:59;100314.94;;;20.44;100.00
3917;BME280;1973;50.518;7.318;2023-07-31T08:50:25;100321.63;;;20.48;100.00
3917;BME280;1973;50.518;7.318;2023-07-31T08:52:52;100319.06;;;20.51;100.00
3917;BME280;1973;50.518;7.318;2023-07-31T08:55:21;100314.31;;;20.52;100.00
3917;BME280;1973;50.518;7.318;2023-07-31T08:57:53;100319.28;;;20.60;100.00
3917;BME280;1973;50.518;7.318;2023-07-31T09:00:22;100310.63;;;20.61;100.00
3917;BME280;1973;50.518;7.318;2023-07-31T09:03:01;100295.47;;;20.62;100.00
3917;BME280;1973;50.518;7.318;2023-07-31T09:05:31;100292.13;;;20.65;100.00
3917;BME280;1973;50.518;7.318;2023-07-31T09:07:57;100292.63;;;20.67;100.00
3917;BME280;1973;50.518;7.318;2023-07-31T09:10:25;100288.41;;;20.70;100.00
3917;BME280;1973;50.518;7.318;2023-07-31T09:12:52;100292.03;;;20.70;100.00
3917;BME280;1973;50.518;7.318;2023-07-31T09:15:19;100290.91;;;20.71;100.00
3917;BME280;1973;50.518;7.318;2023-07-31T09:18:02;100284.81;;;20.69;100.00
3917;BME280;1973;50.518;7.318;2023-07-31T09:20:29;100283.13;;;20.68;100.00
3917;BME280;1973;50.518;7.318;2023-07-31T09:22:56;100282.00;;;20.69;100.00
3917;BME280;1973;50.518;7.318;2023-07-31T09:25:26;100284.81;;;20.69;100.00
3917;BME280;1973;50.518;7.318;2023-07-31T09:27:58;100279.44;;;20.73;100.00
3917;BME280;1973;50.518;7.318;2023-07-31T09:30:25;100285.84;;;20.73;100.00
3917;BME280;1973;50.518;7.318;2023-07-31T09:33:00;100278.00;;;20.75;100.00
3917;BME280;1973;50.518;7.318;2023-07-31T09:35:32;100270.13;;;20.77;100.00
3917;BME280;1973;50.518;7.318;2023-07-31T09:38:00;100267.66;;;20.76;100.00
3917;BME280;1973;50.518;7.318;2023-07-31T09:40:29;100266.81;;;20.75;100.00
3917;BME280;1973;50.518;7.318;2023-07-31T09:43:00;100262.94;;;20.71;100.00
3917;BME280;1973;50.518;7.318;2023-07-31T09:45:28;100260.97;;;20.72;100.00
3917;BME280;1973;50.518;7.318;2023-07-31T09:50:39;100250.91;;;20.71;100.00
3917;BME280;1973;50.518;7.318;2023-07-31T09:53:07;100258.47;;;20.70;100.00
3917;BME280;1973;50.518;7.318;2023-07-31T09:55:36;100259.31;;;20.71;100.00
3917;BME280;1973;50.518;7.318;2023-07-31T09:58:04;100255.91;;;20.74;100.00
3917;BME280;1973;50.518;7.318;2023-07-31T10:00:32;100252.28;;;20.73;100.00
3917;BME280;1973;50.518;7.318;2023-07-31T10:03:01;100257.06;;;20.73;100.00
3917;BME280;1973;50.518;7.318;2023-07-31T10:05:31;100252.88;;;20.70;100.00
3917;BME280;1973;50.518;7.318;2023-07-31T10:08:00;100254.41;;;20.58;100.00
3917;BME280;1973;50.518;7.318;2023-07-31T10:10:27;100244.59;;;20.60;100.00
3917;BME280;1973;50.518;7.318;2023-07-31T10:12:56;100250.06;;;20.70;100.00
3917;BME280;1973;50.518;7.318;2023-07-31T10:15:22;100242.47;;;20.76;100.00
3917;BME280;1973;50.518;7.318;2023-07-31T10:17:50;100241.03;;;20.78;100.00
3917;BME280;1973;50.518;7.318;2023-07-31T10:20:17;100241.00;;;20.83;100.00
3917;BME280;1973;50.518;7.318;2023-07-31T10:22:44;100235.91;;;20.85;100.00
3917;BME280;1973;50.518;7.318;2023-07-31T10:25:15;100236.72;;;20.91;100.00
3917;BME280;1973;50.518;7.318;2023-07-31T10:27:42;100221.69;;;21.06;100.00
3917;BME280;1973;50.518;7.318;2023-07-31T10:30:15;100220.97;;;21.19;100.00
3917;BME280;1973;50.518;7.318;2023-07-31T10:32:46;100216.31;;;21.33;100.00
3917;BME280;1973;50.518;7.318;2023-07-31T10:35:16;100205.50;;;21.45;100.00
3917;BME280;1973;50.518;7.318;2023-07-31T10:37:43;100216.94;;;21.67;100.00
3917;BME280;1973;50.518;7.318;2023-07-31T10:40:13;100207.06;;;21.89;100.00
3917;BME280;1973;50.518;7.318;2023-07-31T10:42:49;100206.16;;;22.12;100.00
3917;BME280;1973;50.518;7.318;2023-07-31T10:45:37;100203.09;;;22.27;92.99
3917;BME280;1973;50.518;7.318;2023-07-31T10:48:12;100198.53;;;22.31;97.37
3917;BME280;1973;50.518;7.318;2023-07-31T10:50:47;100193.84;;;22.40;94.97
3917;BME280;1973;50.518;7.318;2023-07-31T10:53:31;100210.94;;;22.57;91.89
3917;BME280;1973;50.518;7.318;2023-07-31T10:56:00;100206.97;;;22.58;94.34
3917;BME280;1973;50.518;7.318;2023-07-31T10:58:28;100213.13;;;22.60;93.33
3917;BME280;1973;50.518;7.318;2023-07-31T11:00:56;100214.59;;;22.58;91.57
3917;BME280;1973;50.518;7.318;2023-07-31T11:03:40;100206.72;;;22.73;89.18
3917;BME280;1973;50.518;7.318;2023-07-31T11:06:08;100218.34;;;22.80;91.53
3917;BME280;1973;50.518;7.318;2023-07-31T11:08:41;100222.84;;;22.82;87.07
3917;BME280;1973;50.518;7.318;2023-07-31T11:11:14;100227.00;;;22.70;87.52
3917;BME280;1973;50.518;7.318;2023-07-31T11:13:47;100245.50;;;22.71;86.73
3917;BME280;1973;50.518;7.318;2023-07-31T11:16:20;100236.25;;;22.71;87.42
3917;BME280;1973;50.518;7.318;2023-07-31T11:18:48;100238.22;;;22.70;86.38
3917;BME280;1973;50.518;7.318;2023-07-31T11:21:18;100213.78;;;22.85;87.28
3917;BME280;1973;50.518;7.318;2023-07-31T11:23:52;100217.25;;;23.09;86.95
3917;BME280;1973;50.518;7.318;2023-07-31T11:26:20;100217.13;;;23.27;85.47
3917;BME280;1973;50.518;7.318;2023-07-31T11:28:47;100212.00;;;23.29;85.73
3917;BME280;1973;50.518;7.318;2023-07-31T11:31:14;100206.47;;;23.38;83.24
3917;BME280;1973;50.518;7.318;2023-07-31T11:33:41;100197.72;;;23.40;83.65
3917;BME280;1973;50.518;7.318;2023-07-31T11:36:18;100202.34;;;23.22;81.05
3917;BME280;1973;50.518;7.318;2023-07-31T11:38:45;100194.44;;;23.24;83.70
3917;BME280;1973;50.518;7.318;2023-07-31T11:41:14;100208.28;;;23.20;83.08
3917;BME280;1973;50.518;7.318;2023-07-31T11:43:43;100200.88;;;23.24;83.10
3917;BME280;1973;50.518;7.318;2023-07-31T11:46:09;100175.69;;;23.33;83.78
3917;BME280;1973;50.518;7.318;2023-07-31T11:48:37;100181.63;;;23.32;83.71
3917;BME280;1973;50.518;7.318;2023-07-31T11:51:05;100180.66;;;23.36;82.53
3917;BME280;1973;50.518;7.318;2023-07-31T11:53:41;100189.88;;;23.28;84.36
3917;BME280;1973;50.518;7.318;2023-07-31T11:56:11;100186.50;;;23.53;82.35
3917;BME280;1973;50.518;7.318;2023-07-31T11:58:40;100189.19;;;23.81;81.07
3917;BME280;1973;50.518;7.318;2023-07-31T12:01:08;100168.44;;;23.90;80.58
3917;BME280;1973;50.518;7.318;2023-07-31T12:03:35;100168.38;;;24.26;79.00
3917;BME280;1973;50.518;7.318;2023-07-31T12:06:02;100183.97;;;24.63;77.39
3917;BME280;1973;50.518;7.318;2023-07-31T12:08:29;100176.72;;;24.70;77.17
3917;BME280;1973;50.518;7.318;2023-07-31T12:11:05;100165.63;;;25.05;69.74
3917;BME280;1973;50.518;7.318;2023-07-31T12:13:33;100161.69;;;25.23;71.23
3917;BME280;1973;50.518;7.318;2023-07-31T12:16:02;100177.50;;;25.02;70.12
3917;BME280;1973;50.518;7.318;2023-07-31T12:18:35;100165.63;;;25.05;67.96
3917;BME280;1973;50.518;7.318;2023-07-31T12:21:05;100155.22;;;25.23;69.18
3917;BME280;1973;50.518;7.318;2023-07-31T12:23:33;100144.78;;;25.23;67.90
3917;BME280;1973;50.518;7.318;2023-07-31T12:26:11;100162.84;;;25.31;66.61
3917;BME280;1973;50.518;7.318;2023-07-31T12:28:43;100153.13;;;24.89;69.06
3917;BME280;1973;50.518;7.318;2023-07-31T12:31:30;100152.69;;;24.73;69.83
3917;BME280;1973;50.518;7.318;2023-07-31T12:34:00;100153.19;;;24.66;71.15
3917;BME280;1973;50.518;7.318;2023-07-31T12:36:27;100147.78;;;24.79;70.25
3917;BME280;1973;50.518;7.318;2023-07-31T12:38:55;100145.88;;;24.65;70.23
3917;BME280;1973;50.518;7.318;2023-07-31T12:41:23;100139.94;;;24.67;70.64
3917;BME280;1973;50.518;7.318;2023-07-31T12:43:49;100154.91;;;24.45;70.75
3917;BME280;1973;50.518;7.318;2023-07-31T12:46:16;100143.53;;;24.19;73.42
3917;BME280;1973;50.518;7.318;2023-07-31T12:48:43;100146.53;;;24.23;74.36
3917;BME280;1973;50.518;7.318;2023-07-31T12:51:10;100141.03;;;24.18;74.85
3917;BME280;1973;50.518;7.318;2023-07-31T12:53:36;100141.75;;;24.10;75.82
3917;BME280;1973;50.518;7.318;2023-07-31T12:56:03;100143.81;;;23.96;76.45
3917;BME280;1973;50.518;7.318;2023-07-31T12:58:30;100149.63;;;23.77;76.79
3917;BME280;1973;50.518;7.318;2023-07-31T13:00:57;100148.03;;;23.85;76.93
3917;BME280;1973;50.518;7.318;2023-07-31T13:03:23;100141.94;;;23.83;78.63
3917;BME280;1973;50.518;7.318;2023-07-31T13:05:50;100138.56;;;23.58;79.55
3917;BME280;1973;50.518;7.318;2023-07-31T13:08:18;100154.31;;;23.59;79.95
3917;BME280;1973;50.518;7.318;2023-07-31T13:10:44;100165.53;;;23.59;81.32
3917;BME280;1973;50.518;7.318;2023-07-31T13:13:14;100159.16;;;23.67;80.88
3917;BME280;1973;50.518;7.318;2023-07-31T13:15:43;100190.47;;;23.25;82.76